createdAt,value
2019-02-25T00:02:04.523Z,7.73
2019-02-25T00:04:34.794Z,8.47
2019-02-25T00:07:05.104Z,7.70
2019-02-25T00:09:35.704Z,7.97
2019-02-25T00:12:06.343Z,8.13
2019-02-25T00:14:37.100Z,8.23
2019-02-25T00:17:07.327Z,9.57
2019-02-25T00:19:38.236Z,6.87
2019-02-25T00:22:09.173Z,6.63
2019-02-25T00:24:39.488Z,8.20
2019-02-25T00:27:09.760Z,10.43
2019-02-25T00:29:40.027Z,7.00
2019-02-25T00:32:10.300Z,9.00
2019-02-25T00:34:40.866Z,8.87
2019-02-25T00:37:11.048Z,8.67
2019-02-25T00:39:41.652Z,7.57
2019-02-25T00:42:11.930Z,7.80
2019-02-25T00:44:42.183Z,7.70
2019-02-25T00:47:12.436Z,7.07
2019-02-25T00:49:42.720Z,8.40
2019-02-25T00:52:13.108Z,9.23
2019-02-25T00:54:43.901Z,7.97
2019-02-25T00:57:14.175Z,7.13
2019-02-25T00:59:45.375Z,6.60
2019-02-25T01:02:15.901Z,7.53
2019-02-25T01:04:46.109Z,8.53
2019-02-25T01:07:16.373Z,6.93
2019-02-25T01:09:46.984Z,6.20
2019-02-25T01:12:18.291Z,9.40
2019-02-25T01:14:48.530Z,8.77
2019-02-25T01:17:18.908Z,8.73
2019-02-25T01:19:49.715Z,6.97
2019-02-25T01:22:20.224Z,6.60
2019-02-25T01:24:50.443Z,6.63
2019-02-25T01:27:21.846Z,6.47
2019-02-25T01:29:52.436Z,7.90
2019-02-25T01:32:22.705Z,7.03
2019-02-25T01:34:53.299Z,7.53
2019-02-25T01:37:23.931Z,6.85
2019-02-25T01:39:55.251Z,7.03
2019-02-25T01:42:25.812Z,7.90
2019-02-25T01:44:57.353Z,7.73
2019-02-25T01:47:27.619Z,6.47
2019-02-25T01:49:57.898Z,8.30
2019-02-25T01:52:28.180Z,6.97
2019-02-25T01:54:58.734Z,8.23
2019-02-25T01:57:29.028Z,8.60
2019-02-25T01:59:59.297Z,8.33
2019-02-25T02:02:29.907Z,8.60
2019-02-25T02:05:00.278Z,7.20
2019-02-25T02:07:30.433Z,8.63
2019-02-25T02:10:01.328Z,8.23
2019-02-25T02:12:32.279Z,8.50
2019-02-25T02:15:02.586Z,8.23
2019-02-25T02:17:33.226Z,10.00
2019-02-25T02:20:03.857Z,9.37
2019-02-25T02:22:34.394Z,8.30
2019-02-25T02:25:05.018Z,8.50
2019-02-25T02:27:36.285Z,8.00
2019-02-25T02:30:08.273Z,7.53
2019-02-25T02:32:44.436Z,6.80
2019-02-25T02:35:14.694Z,8.77
2019-02-25T02:37:44.990Z,8.17
2019-02-25T02:40:17.950Z,7.97
2019-02-25T02:42:51.215Z,7.50
2019-02-25T02:45:34.284Z,7.27
2019-02-25T02:48:15.049Z,7.27
2019-02-25T02:50:45.332Z,8.13
2019-02-25T02:53:15.609Z,8.47
2019-02-25T02:55:45.961Z,8.80
2019-02-25T02:58:16.926Z,7.30
2019-02-25T03:00:47.557Z,8.67
2019-02-25T03:03:17.814Z,9.03
2019-02-25T03:05:48.402Z,10.83
2019-02-25T03:08:18.662Z,8.50
2019-02-25T03:10:48.951Z,8.40
2019-02-25T03:13:19.591Z,9.27
2019-02-25T03:15:49.930Z,8.50
2019-02-25T03:19:36.489Z,6.83
2019-02-25T03:22:07.465Z,6.80
2019-02-25T03:24:39.094Z,10.07
2019-02-25T03:27:09.697Z,8.33
2019-02-25T03:29:39.911Z,6.30
2019-02-25T03:32:10.194Z,8.73
2019-02-25T03:34:40.469Z,7.33
2019-02-25T03:37:10.773Z,9.73
2019-02-25T03:39:42.197Z,7.00
2019-02-25T03:42:13.137Z,7.30
2019-02-25T03:44:44.177Z,7.33
2019-02-25T03:47:14.488Z,7.07
2019-02-25T03:49:45.137Z,8.47
2019-02-25T03:52:16.075Z,6.63
2019-02-25T03:54:46.340Z,6.70
2019-02-25T03:57:16.602Z,5.77
2019-02-25T03:59:47.868Z,5.73
2019-02-25T04:02:18.904Z,6.13
2019-02-25T04:04:49.669Z,7.07
2019-02-25T04:07:19.945Z,6.80
2019-02-25T04:09:50.224Z,5.83
2019-02-25T04:12:20.536Z,6.53
2019-02-25T04:14:50.774Z,6.53
2019-02-25T04:17:22.118Z,7.63
2019-02-25T04:19:52.334Z,5.97
2019-02-25T04:22:23.246Z,7.20
2019-02-25T04:24:53.886Z,5.70
2019-02-25T04:27:24.189Z,6.80
2019-02-25T04:29:54.561Z,6.33
2019-02-25T04:32:24.859Z,6.33
2019-02-25T04:34:55.150Z,7.77
2019-02-25T04:37:25.399Z,6.57
2019-02-25T04:39:56.009Z,6.43
2019-02-25T04:42:26.562Z,6.53
2019-02-25T04:44:57.504Z,7.37
2019-02-25T04:47:27.944Z,7.23
2019-02-25T04:49:58.869Z,6.20
2019-02-25T04:52:29.182Z,7.40
2019-02-25T04:55:00.393Z,6.63
2019-02-25T04:57:30.701Z,7.87
2019-02-25T05:00:01.301Z,7.77
2019-02-25T05:02:32.950Z,10.03
2019-02-25T05:05:03.291Z,8.77
2019-02-25T05:07:33.590Z,10.90
2019-02-25T05:10:04.607Z,10.30
2019-02-25T05:12:35.169Z,10.47
2019-02-25T05:15:06.130Z,12.27
2019-02-25T05:17:36.871Z,10.63
2019-02-25T05:20:07.628Z,11.77
2019-02-25T05:22:37.907Z,10.60
2019-02-25T05:25:08.401Z,12.43
2019-02-25T05:27:38.650Z,10.97
2019-02-25T05:30:10.437Z,9.40
2019-02-25T05:32:40.736Z,11.27
2019-02-25T05:35:11.246Z,12.60
2019-02-25T05:37:41.846Z,10.77
2019-02-25T05:40:14.208Z,13.80
2019-02-25T05:42:44.917Z,11.93
2019-02-25T05:45:15.947Z,17.97
2019-02-25T05:47:46.279Z,13.13
2019-02-25T05:50:16.626Z,13.57
2019-02-25T05:52:49.478Z,10.77
2019-02-25T05:55:19.906Z,12.00
2019-02-25T05:57:51.134Z,13.60
2019-02-25T06:00:25.170Z,8.73
2019-02-25T06:02:55.560Z,10.87
2019-02-25T06:05:26.051Z,9.60
2019-02-25T06:07:56.846Z,9.37
2019-02-25T06:10:27.113Z,7.53
2019-02-25T06:12:57.395Z,9.73
2019-02-25T06:15:27.665Z,9.17
2019-02-25T06:17:58.018Z,11.57
2019-02-25T06:20:28.314Z,12.67
2019-02-25T06:23:00.346Z,10.87
2019-02-25T06:25:30.617Z,9.60
2019-02-25T06:28:00.900Z,9.03
2019-02-25T06:30:31.137Z,9.83
2019-02-25T06:33:01.744Z,6.87
2019-02-25T06:35:33.351Z,8.23
2019-02-25T06:38:03.593Z,5.47
2019-02-25T06:40:33.850Z,6.13
2019-02-25T06:43:04.884Z,5.43
2019-02-25T06:45:36.326Z,4.70
2019-02-25T06:48:06.597Z,5.00
2019-02-25T06:50:36.821Z,5.00
2019-02-25T06:53:07.005Z,4.00
2019-02-25T06:55:38.625Z,7.07
2019-02-25T06:58:08.923Z,7.40
2019-02-25T07:00:39.198Z,8.00
2019-02-25T07:03:09.938Z,8.93
2019-02-25T07:05:57.160Z,8.00
2019-02-25T07:08:40.824Z,6.10
2019-02-25T07:11:20.913Z,5.00
2019-02-25T07:14:00.803Z,5.33
2019-02-25T07:16:53.932Z,5.93
2019-02-25T07:19:35.804Z,9.40
2019-02-25T07:22:30.964Z,9.80
2019-02-25T07:25:12.095Z,6.67
2019-02-25T07:28:00.446Z,10.70
2019-02-25T07:30:41.751Z,6.50
2019-02-25T07:33:21.849Z,8.40
2019-02-25T07:36:11.085Z,5.97
2019-02-25T07:38:59.104Z,5.20
2019-02-25T07:41:52.238Z,5.47
2019-02-25T07:44:40.501Z,5.00
2019-02-25T07:47:29.662Z,4.53
2019-02-25T07:50:21.873Z,5.17
2019-02-25T07:53:09.726Z,5.07
2019-02-25T07:56:08.567Z,7.27
2019-02-25T07:58:53.910Z,7.57
2019-02-25T08:01:55.273Z,5.70
2019-02-25T08:04:41.347Z,9.00
2019-02-25T08:07:31.515Z,6.62
2019-02-25T08:10:21.122Z,6.07
2019-02-25T08:13:14.341Z,7.43
2019-02-25T08:16:00.771Z,6.83
2019-02-25T08:18:49.925Z,6.47
2019-02-25T08:21:35.727Z,6.73
2019-02-25T08:24:18.735Z,7.93
2019-02-25T08:27:07.375Z,6.87
2019-02-25T08:29:59.350Z,7.93
2019-02-25T08:32:47.401Z,7.23
2019-02-25T08:36:11.514Z,6.10
2019-02-25T08:38:59.040Z,5.07
2019-02-25T08:41:38.020Z,5.40
2019-02-25T08:44:24.500Z,7.07
2019-02-25T08:47:20.385Z,6.12
2019-02-25T08:49:59.551Z,4.37
2019-02-25T08:52:30.242Z,4.50
2019-02-25T08:55:00.511Z,6.30
2019-02-25T08:57:30.819Z,5.97
2019-02-25T09:00:01.015Z,7.37
2019-02-25T09:02:32.995Z,5.23
2019-02-25T09:05:03.258Z,6.13
2019-02-25T09:07:33.531Z,4.77
2019-02-25T09:10:04.290Z,4.70
2019-02-25T09:12:34.583Z,5.13
2019-02-25T09:15:05.468Z,4.20
2019-02-25T09:17:43.696Z,4.33
2019-02-25T09:20:15.138Z,5.50
2019-02-25T09:22:45.716Z,5.47
2019-02-25T09:25:16.260Z,4.83
2019-02-25T09:27:46.578Z,4.37
2019-02-25T09:30:17.529Z,4.13
2019-02-25T09:32:48.242Z,3.10
2019-02-25T09:35:18.525Z,4.03
2019-02-25T09:37:48.954Z,4.70
2019-02-25T09:40:19.519Z,3.83
2019-02-25T09:42:50.585Z,5.97
2019-02-25T09:45:21.724Z,3.43
2019-02-25T09:47:52.356Z,3.67
2019-02-25T09:50:23.119Z,3.33
2019-02-25T09:52:53.830Z,3.83
2019-02-25T09:55:24.089Z,5.80
2019-02-25T09:57:54.392Z,3.67
2019-02-25T10:00:24.671Z,4.53
2019-02-25T10:02:55.583Z,4.43
2019-02-25T10:05:25.797Z,6.30
2019-02-25T10:07:56.556Z,3.80
2019-02-25T10:10:27.531Z,3.03
2019-02-25T10:12:57.841Z,3.77
2019-02-25T10:15:28.148Z,4.37
2019-02-25T10:17:59.017Z,6.03
2019-02-25T10:20:30.060Z,5.22
2019-02-25T10:23:00.997Z,7.25
2019-02-25T10:25:31.169Z,3.52
2019-02-25T10:28:01.397Z,3.37
2019-02-25T10:30:31.945Z,2.65
2019-02-25T10:33:02.510Z,3.60
2019-02-25T10:35:32.755Z,4.35
2019-02-25T10:38:03.287Z,2.75
2019-02-25T10:40:33.619Z,2.30
2019-02-25T10:43:04.080Z,2.20
2019-02-25T10:45:36.375Z,3.55
2019-02-25T10:48:06.389Z,3.30
2019-02-25T10:50:38.600Z,3.30
2019-02-25T10:53:08.576Z,2.97
2019-02-25T10:55:44.960Z,2.60
2019-02-25T10:58:14.972Z,3.52
2019-02-25T11:00:46.094Z,5.00
2019-02-25T11:03:17.889Z,2.95
2019-02-25T11:05:48.633Z,2.92
2019-02-25T11:08:19.960Z,2.55
2019-02-25T11:11:00.645Z,3.00
2019-02-25T11:13:31.960Z,4.35
2019-02-25T11:16:03.982Z,2.58
2019-02-25T11:18:34.243Z,4.08
2019-02-25T11:21:06.138Z,2.55
2019-02-25T11:23:37.036Z,3.10
2019-02-25T11:26:09.242Z,3.98
2019-02-25T11:28:41.078Z,2.98
2019-02-25T11:31:11.130Z,2.87
2019-02-25T11:33:41.438Z,3.08
2019-02-25T11:36:12.796Z,8.98
2019-02-25T11:38:45.351Z,3.25
2019-02-25T11:41:15.949Z,5.70
2019-02-25T11:43:48.088Z,4.70
2019-02-25T11:46:18.476Z,3.73
2019-02-25T11:48:49.096Z,2.83
2019-02-25T11:51:19.374Z,3.27
2019-02-25T11:53:49.648Z,3.90
2019-02-25T11:56:19.910Z,2.60
2019-02-25T11:58:50.920Z,3.45
2019-02-25T12:01:21.928Z,3.80
2019-02-25T12:03:52.124Z,2.65
2019-02-25T12:06:22.336Z,2.95
2019-02-25T12:08:52.643Z,2.85
2019-02-25T12:11:22.885Z,2.85
2019-02-25T12:13:53.243Z,3.00
2019-02-25T12:16:23.434Z,3.47
2019-02-25T12:18:54.057Z,3.22
2019-02-25T12:21:24.652Z,3.20
2019-02-25T12:23:54.995Z,3.75
2019-02-25T12:26:25.244Z,3.47
2019-02-25T12:28:55.612Z,3.45
2019-02-25T12:31:25.880Z,6.67
2019-02-25T12:33:56.487Z,2.87
2019-02-25T12:36:27.121Z,2.50
2019-02-25T12:38:57.880Z,2.45
2019-02-25T12:41:28.485Z,5.53
2019-02-25T12:43:58.708Z,5.95
2019-02-25T12:46:29.721Z,3.08
2019-02-25T12:49:01.071Z,3.78
2019-02-25T12:51:31.354Z,2.50
2019-02-25T12:54:01.633Z,3.37
2019-02-25T12:56:31.948Z,3.77
2019-02-25T12:59:05.086Z,3.27
2019-02-25T13:01:35.390Z,2.65
2019-02-25T13:04:06.743Z,3.10
2019-02-25T13:06:37.656Z,2.77
2019-02-25T13:09:12.844Z,3.33
2019-02-25T13:11:43.963Z,7.92
2019-02-25T13:14:14.987Z,3.83
2019-02-25T13:16:45.835Z,3.05
2019-02-25T13:19:16.097Z,3.37
2019-02-25T13:21:46.845Z,2.75
2019-02-25T13:24:17.397Z,2.72
2019-02-25T13:26:48.261Z,3.95
2019-02-25T13:29:18.861Z,3.42
2019-02-25T13:31:49.440Z,3.80
2019-02-25T13:34:19.954Z,4.15
2019-02-25T13:36:50.264Z,3.52
2019-02-25T13:39:20.537Z,4.35
2019-02-25T13:41:50.816Z,4.15
2019-02-25T13:44:21.561Z,4.40
2019-02-25T13:46:51.878Z,3.75
2019-02-25T13:49:22.517Z,3.30
2019-02-25T13:51:53.139Z,5.17
2019-02-25T13:54:23.985Z,5.93
2019-02-25T13:56:54.720Z,2.87
2019-02-25T13:59:25.319Z,3.50
2019-02-25T14:01:55.977Z,3.33
2019-02-25T14:04:29.915Z,3.00
2019-02-25T14:07:00.548Z,4.12
2019-02-25T14:09:31.901Z,2.98
2019-02-25T14:12:02.671Z,2.60
2019-02-25T14:14:34.305Z,4.40
2019-02-25T14:17:04.591Z,4.28
2019-02-25T14:19:36.041Z,3.75
2019-02-25T14:22:07.067Z,4.60
2019-02-25T14:24:38.522Z,5.25
2019-02-25T14:27:11.752Z,7.05
2019-02-25T14:29:44.635Z,6.95
2019-02-25T14:32:15.758Z,5.72
2019-02-25T14:34:46.510Z,3.60
2019-02-25T14:37:19.770Z,3.20
2019-02-25T14:39:53.981Z,4.55
2019-02-25T14:42:26.059Z,5.90
2019-02-25T14:44:58.568Z,4.80
2019-02-25T14:47:35.114Z,3.70
2019-02-25T14:50:02.537Z,3.08
2019-02-25T14:52:34.351Z,4.85
2019-02-25T14:55:07.149Z,3.22
2019-02-25T14:57:38.150Z,3.15
2019-02-25T15:00:12.188Z,3.52
2019-02-25T15:02:46.060Z,4.97
2019-02-25T15:05:17.326Z,4.30
2019-02-25T15:07:49.075Z,4.70
2019-02-25T15:10:20.801Z,4.72
2019-02-25T15:12:53.931Z,3.77
2019-02-25T15:15:23.069Z,4.30
2019-02-25T15:17:53.317Z,4.08
2019-02-25T15:20:26.087Z,4.55
2019-02-25T15:22:57.977Z,3.58
2019-02-25T15:25:31.187Z,6.55
2019-02-25T15:28:00.309Z,7.28
2019-02-25T15:30:31.121Z,3.47
2019-02-25T15:33:01.458Z,6.55
2019-02-25T15:35:34.541Z,3.35
2019-02-25T15:38:04.221Z,4.67
2019-02-25T15:40:34.868Z,5.55
2019-02-25T15:43:10.488Z,3.95
2019-02-25T15:45:42.479Z,5.78
2019-02-25T15:48:16.380Z,4.72
2019-02-25T15:50:48.514Z,3.60
2019-02-25T15:53:19.492Z,4.45
2019-02-25T15:55:50.435Z,3.37
2019-02-25T15:58:21.376Z,2.70
2019-02-25T16:00:51.924Z,5.50
2019-02-25T16:03:23.490Z,3.70
2019-02-25T16:05:57.200Z,6.58
2019-02-25T16:08:26.901Z,6.55
2019-02-25T16:11:00.072Z,8.45
2019-02-25T16:13:31.435Z,6.10
2019-02-25T16:16:01.662Z,4.30
2019-02-25T16:18:33.452Z,6.10
2019-02-25T16:21:04.740Z,5.33
2019-02-25T16:23:39.039Z,3.83
2019-02-25T16:26:08.614Z,5.90
2019-02-25T16:28:39.897Z,5.00
2019-02-25T16:31:11.043Z,4.30
2019-02-25T16:33:43.044Z,4.87
2019-02-25T16:36:13.697Z,4.70
2019-02-25T16:38:44.592Z,4.93
2019-02-25T16:41:16.093Z,4.67
2019-02-25T16:43:47.073Z,5.80
2019-02-25T16:46:18.467Z,5.27
2019-02-25T16:48:52.405Z,5.53
2019-02-25T16:51:23.888Z,4.73
2019-02-25T16:53:55.308Z,5.80
2019-02-25T16:56:25.949Z,6.13
2019-02-25T16:58:58.827Z,6.67
2019-02-25T17:01:29.945Z,4.67
2019-02-25T17:04:01.342Z,5.97
2019-02-25T17:06:32.531Z,7.13
2019-02-25T17:09:04.630Z,6.90
2019-02-25T17:11:37.955Z,5.80
2019-02-25T17:14:08.452Z,8.47
2019-02-25T17:16:39.007Z,6.27
2019-02-25T17:19:09.651Z,7.27
2019-02-25T17:21:42.934Z,6.20
2019-02-25T17:24:12.074Z,6.30
2019-02-25T17:26:42.434Z,7.53
2019-02-25T17:29:12.617Z,7.73
2019-02-25T17:31:42.899Z,5.33
2019-02-25T17:34:14.453Z,8.93
2019-02-25T17:36:45.632Z,8.33
2019-02-25T17:39:17.982Z,8.77
2019-02-25T17:41:48.614Z,8.53
2019-02-25T17:44:20.526Z,9.13
2019-02-25T17:46:51.226Z,8.83
2019-02-25T17:49:22.154Z,7.93
2019-02-25T17:51:53.295Z,9.00
2019-02-25T17:54:24.575Z,8.63
2019-02-25T17:56:54.958Z,8.27
2019-02-25T17:59:26.892Z,11.03
2019-02-25T18:01:57.588Z,12.57
2019-02-25T18:04:30.371Z,11.40
2019-02-25T18:07:00.383Z,12.53
2019-02-25T18:09:30.963Z,10.33
2019-02-25T18:12:02.190Z,10.33
2019-02-25T18:14:33.491Z,9.68
2019-02-25T18:17:05.980Z,10.33
2019-02-25T18:19:35.711Z,11.60
2019-02-25T18:22:06.310Z,11.70
2019-02-25T18:24:36.624Z,11.10
2019-02-25T18:27:09.239Z,10.77
2019-02-25T18:29:41.370Z,10.97
2019-02-25T18:32:12.307Z,14.97
2019-02-25T18:34:43.424Z,12.17
2019-02-25T18:37:15.487Z,10.75
2019-02-25T18:39:47.422Z,10.17
2019-02-25T18:42:20.293Z,8.93
2019-02-25T18:44:51.849Z,9.40
2019-02-25T18:47:25.033Z,13.90
2019-02-25T18:49:56.581Z,9.80
2019-02-25T18:52:29.663Z,10.50
2019-02-25T18:55:02.799Z,10.00
2019-02-25T18:57:34.144Z,12.20
2019-02-25T19:00:06.983Z,12.00
2019-02-25T19:02:40.265Z,11.10
2019-02-25T19:05:14.010Z,12.27
2019-02-25T19:07:44.539Z,10.90
2019-02-25T19:10:17.949Z,13.90
2019-02-25T19:12:49.637Z,12.07
2019-02-25T19:15:22.423Z,11.27
2019-02-25T19:17:54.386Z,12.73
2019-02-25T19:20:25.451Z,12.90
2019-02-25T19:23:00.491Z,12.33
2019-02-25T19:25:29.039Z,12.97
2019-02-25T19:27:59.334Z,10.67
2019-02-25T19:30:31.787Z,13.37
2019-02-25T19:33:10.888Z,15.23
2019-02-25T19:35:36.087Z,12.03
2019-02-25T19:38:07.846Z,12.50
2019-02-25T19:40:40.522Z,12.13
2019-02-25T19:43:11.848Z,12.83
2019-02-25T19:45:43.203Z,10.80
2019-02-25T19:48:14.535Z,15.40
2019-02-25T19:50:51.168Z,17.23
2019-02-25T19:53:20.288Z,17.93
2019-02-25T19:55:51.790Z,17.43
2019-02-25T19:58:24.218Z,17.90
2019-02-25T20:00:58.408Z,17.30
2019-02-25T20:03:28.983Z,16.13
2019-02-25T20:05:58.951Z,19.60
2019-02-25T20:08:29.282Z,18.37
2019-02-25T20:10:59.973Z,18.00
2019-02-25T20:13:30.621Z,16.93
2019-02-25T20:16:07.868Z,18.37
2019-02-25T20:18:35.526Z,17.47
2019-02-25T20:21:08.048Z,23.70
2019-02-25T20:23:38.198Z,20.00
2019-02-25T20:26:11.334Z,19.07
2019-02-25T20:28:41.263Z,15.60
2019-02-25T20:31:14.549Z,16.47
2019-02-25T20:33:45.573Z,18.07
2019-02-25T20:36:19.268Z,23.37
2019-02-25T20:38:49.159Z,23.20
2019-02-25T20:41:21.893Z,18.00
2019-02-25T20:43:55.969Z,14.67
2019-02-25T20:46:26.221Z,18.20
2019-02-25T20:48:57.846Z,17.60
2019-02-25T20:51:29.892Z,16.87
2019-02-25T20:54:01.815Z,13.10
2019-02-25T20:56:33.267Z,12.20
2019-02-25T20:59:06.144Z,13.27
2019-02-25T21:01:39.546Z,14.33
2019-02-25T21:04:11.334Z,14.70
2019-02-25T21:06:42.267Z,12.40
2019-02-25T21:09:14.451Z,12.20
2019-02-25T21:11:45.449Z,11.53
2019-02-25T21:14:16.114Z,13.50
2019-02-25T21:16:46.471Z,13.27
2019-02-25T21:19:19.901Z,12.00
2019-02-25T21:21:52.795Z,15.33
2019-02-25T21:24:21.634Z,15.70
2019-02-25T21:26:55.190Z,13.63
2019-02-25T21:29:26.887Z,13.13
2019-02-25T21:31:58.767Z,15.93
2019-02-25T21:34:30.736Z,13.97
2019-02-25T21:37:02.959Z,14.73
2019-02-25T21:39:34.406Z,14.47
2019-02-25T21:42:06.332Z,17.03
2019-02-25T21:44:37.766Z,15.70
2019-02-25T21:47:08.878Z,16.50
2019-02-25T21:49:40.533Z,15.93
2019-02-25T21:52:13.642Z,19.30
2019-02-25T21:54:45.086Z,17.23
2019-02-25T21:57:16.014Z,17.17
2019-02-25T21:59:47.054Z,16.10
2019-02-25T22:02:17.604Z,19.03
2019-02-25T22:04:49.735Z,16.83
2019-02-25T22:07:24.345Z,15.87
2019-02-25T22:09:52.344Z,14.73
2019-02-25T22:12:22.659Z,12.83
2019-02-25T22:14:54.805Z,12.90
2019-02-25T22:17:25.144Z,12.00
2019-02-25T22:19:56.007Z,11.13
2019-02-25T22:22:28.859Z,11.80
2019-02-25T22:25:06.071Z,14.10
2019-02-25T22:27:36.943Z,9.03
2019-02-25T22:30:09.314Z,9.73
2019-02-25T22:32:40.881Z,10.20
2019-02-25T22:35:14.913Z,10.17
2019-02-25T22:37:46.902Z,8.63
2019-02-25T22:40:17.184Z,7.90
2019-02-25T22:42:50.432Z,8.93
2019-02-25T22:45:21.266Z,8.83
2019-02-25T22:47:52.275Z,9.37
2019-02-25T22:50:22.498Z,8.00
2019-02-25T22:52:58.198Z,7.50
2019-02-25T22:55:24.942Z,11.60
2019-02-25T22:57:55.209Z,7.73
2019-02-25T23:00:44.133Z,9.93
2019-02-25T23:03:19.763Z,9.53
2019-02-25T23:05:50.881Z,12.63
2019-02-25T23:08:23.416Z,13.83
2019-02-25T23:10:54.589Z,10.50
2019-02-25T23:13:27.483Z,10.33
2019-02-25T23:15:57.433Z,13.23
2019-02-25T23:18:28.275Z,11.57
2019-02-25T23:21:01.250Z,11.93
2019-02-25T23:23:32.899Z,11.40
2019-02-25T23:26:03.435Z,11.20
2019-02-25T23:28:34.476Z,12.00
2019-02-25T23:31:05.722Z,13.40
2019-02-25T23:33:38.190Z,10.70
2019-02-25T23:36:08.368Z,11.13
2019-02-25T23:38:40.788Z,10.43
2019-02-25T23:41:12.781Z,9.17
2019-02-25T23:43:44.977Z,10.33
2019-02-25T23:46:15.954Z,11.00
2019-02-25T23:48:47.521Z,9.47
2019-02-25T23:51:23.071Z,10.80
2019-02-25T23:53:55.904Z,9.67
2019-02-25T23:56:27.433Z,10.83
2019-02-25T23:58:59.054Z,12.60
